createdAt,value
2023-01-11T00:01:12.213Z,101274.19
2023-01-11T00:03:40.061Z,101276.84
2023-01-11T00:06:10.612Z,101273.16
2023-01-11T00:08:38.700Z,101277.69
2023-01-11T00:11:13.769Z,101275.47
2023-01-11T00:13:41.750Z,101268.06
2023-01-11T00:16:10.511Z,101270.00
2023-01-11T00:18:38.752Z,101273.53
2023-01-11T00:21:07.625Z,101265.94
2023-01-11T00:23:38.497Z,101261.44
2023-01-11T00:26:07.393Z,101259.22
2023-01-11T00:28:35.723Z,101255.97
2023-01-11T00:31:03.823Z,101248.88
2023-01-11T00:33:31.754Z,101238.16
2023-01-11T00:35:59.777Z,101235.22
2023-01-11T00:38:47.077Z,101231.78
2023-01-11T00:41:40.360Z,101238.06
2023-01-11T00:44:27.832Z,101226.91
2023-01-11T00:47:12.893Z,101232.16
2023-01-11T00:49:40.923Z,101229.03
2023-01-11T00:52:10.025Z,101220.13
2023-01-11T00:54:38.570Z,101216.66
2023-01-11T00:57:08.604Z,101207.72
2023-01-11T00:59:36.632Z,101212.56
2023-01-11T01:02:04.764Z,101211.38
2023-01-11T01:04:33.007Z,101211.22
2023-01-11T01:07:00.868Z,101200.13
2023-01-11T01:09:29.041Z,101198.69
2023-01-11T01:11:56.923Z,101189.50
2023-01-11T01:14:29.789Z,101190.75
2023-01-11T01:16:59.687Z,101191.81
2023-01-11T01:19:28.794Z,101190.34
2023-01-11T01:21:57.862Z,101195.84
2023-01-11T01:24:28.259Z,101191.41
2023-01-11T01:26:56.328Z,101186.78
2023-01-11T01:29:26.283Z,101190.94
2023-01-11T01:31:54.245Z,101183.38
2023-01-11T01:34:22.164Z,101175.22
2023-01-11T01:36:50.140Z,101182.75
2023-01-11T01:39:17.999Z,101178.22
2023-01-11T01:41:45.870Z,101172.56
2023-01-11T01:44:55.686Z,101175.50
2023-01-11T01:47:28.482Z,101171.34
2023-01-11T01:49:58.598Z,101165.22
2023-01-11T01:52:29.292Z,101155.31
2023-01-11T01:55:01.387Z,101159.44
2023-01-11T01:57:35.438Z,101141.91
2023-01-11T02:00:07.803Z,101138.88
2023-01-11T02:02:38.244Z,101142.91
2023-01-11T02:05:08.134Z,101122.16
2023-01-11T02:07:39.534Z,101116.06
2023-01-11T02:10:10.341Z,101122.28
2023-01-11T02:12:41.614Z,101112.75
2023-01-11T02:15:13.010Z,101105.94
2023-01-11T02:17:40.951Z,101105.19
2023-01-11T02:20:23.388Z,101107.44
2023-01-11T02:23:21.269Z,101097.28
2023-01-11T02:26:32.489Z,101088.69
2023-01-11T02:29:10.056Z,101083.00
2023-01-11T02:31:45.762Z,101081.22
2023-01-11T02:34:27.852Z,101068.25
2023-01-11T02:37:09.072Z,101061.50
2023-01-11T02:39:46.982Z,101062.09
2023-01-11T02:42:39.087Z,101062.56
2023-01-11T02:45:18.845Z,101050.09
2023-01-11T02:47:52.371Z,101053.72
2023-01-11T02:50:24.694Z,101050.09
2023-01-11T02:52:58.823Z,101049.81
2023-01-11T02:55:30.444Z,101053.91
2023-01-11T02:58:02.317Z,101058.16
2023-01-11T03:00:31.943Z,101044.94
2023-01-11T03:03:13.672Z,101035.25
2023-01-11T03:05:48.100Z,101031.25
2023-01-11T03:08:45.143Z,101026.78
2023-01-11T03:11:36.887Z,101017.00
2023-01-11T03:14:11.152Z,101025.75
2023-01-11T03:16:50.627Z,101014.50
2023-01-11T03:19:29.229Z,101005.13
2023-01-11T03:22:02.853Z,101015.13
2023-01-11T03:24:34.326Z,101008.44
2023-01-11T03:27:23.141Z,101000.06
2023-01-11T03:29:55.455Z,101002.72
2023-01-11T03:32:37.359Z,100994.81
2023-01-11T03:35:25.368Z,101003.16
2023-01-11T03:37:58.834Z,101002.34
2023-01-11T03:40:31.566Z,100988.47
2023-01-11T03:43:14.769Z,100978.41
2023-01-11T03:45:47.757Z,100980.19
2023-01-11T03:48:20.920Z,100979.69
2023-01-11T03:50:52.059Z,100978.06
2023-01-11T03:53:24.198Z,100976.88
2023-01-11T03:55:56.933Z,100975.94
2023-01-11T03:58:27.184Z,100965.63
2023-01-11T04:00:57.900Z,100968.69
2023-01-11T04:03:28.237Z,100971.28
2023-01-11T04:06:00.657Z,100976.22
2023-01-11T04:08:28.680Z,100966.81
2023-01-11T04:10:56.752Z,100970.25
2023-01-11T04:13:24.645Z,100965.63
2023-01-11T04:15:53.859Z,100956.28
2023-01-11T04:18:21.735Z,100958.56
2023-01-11T04:20:50.991Z,100962.72
2023-01-11T04:23:18.907Z,100944.22
2023-01-11T04:25:48.077Z,100947.66
2023-01-11T04:28:16.117Z,100943.03
2023-01-11T04:30:44.047Z,100946.19
2023-01-11T04:33:13.261Z,100944.03
2023-01-11T04:35:41.326Z,100937.72
2023-01-11T04:38:10.583Z,100926.53
2023-01-11T04:40:38.513Z,100920.16
2023-01-11T04:43:05.442Z,100911.00
2023-01-11T04:45:33.427Z,100915.25
2023-01-11T04:48:01.341Z,100911.69
2023-01-11T04:50:29.244Z,100908.44
2023-01-11T04:52:59.162Z,100900.66
2023-01-11T04:55:28.485Z,100902.09
2023-01-11T04:57:56.407Z,100918.28
2023-01-11T05:00:24.418Z,100919.53
2023-01-11T05:02:52.327Z,100906.97
2023-01-11T05:05:20.252Z,100898.88
2023-01-11T05:07:49.604Z,100894.41
2023-01-11T05:10:20.736Z,100897.06
2023-01-11T05:12:50.211Z,100888.44
2023-01-11T05:15:18.148Z,100895.28
2023-01-11T05:17:46.021Z,100879.72
2023-01-11T05:20:14.352Z,100893.78
2023-01-11T05:22:42.372Z,100880.09
2023-01-11T05:25:10.705Z,100875.13
2023-01-11T05:27:38.533Z,100877.28
2023-01-11T05:30:09.945Z,100869.00
2023-01-11T05:32:37.881Z,100873.41
2023-01-11T05:35:09.978Z,100882.69
2023-01-11T05:37:38.064Z,100871.38
2023-01-11T05:40:07.151Z,100877.44
2023-01-11T05:42:35.015Z,100867.94
2023-01-11T05:45:20.296Z,100861.03
2023-01-11T05:47:49.547Z,100859.44
2023-01-11T05:50:17.782Z,100856.34
2023-01-11T05:52:45.646Z,100857.09
2023-01-11T05:55:13.515Z,100861.72
2023-01-11T05:57:42.168Z,100852.59
2023-01-11T06:00:12.083Z,100859.63
2023-01-11T06:02:40.802Z,100855.56
2023-01-11T06:05:11.219Z,100848.66
2023-01-11T06:07:40.091Z,100855.31
2023-01-11T06:10:09.557Z,100848.31
2023-01-11T06:12:37.444Z,100844.13
2023-01-11T06:15:06.004Z,100837.78
2023-01-11T06:17:33.869Z,100831.59
2023-01-11T06:20:01.688Z,100835.31
2023-01-11T06:22:30.847Z,100832.13
2023-01-11T06:24:58.657Z,100826.88
2023-01-11T06:27:26.599Z,100830.66
2023-01-11T06:29:54.456Z,100827.78
2023-01-11T06:32:22.319Z,100821.38
2023-01-11T06:34:50.191Z,100823.81
2023-01-11T06:37:18.023Z,100811.91
2023-01-11T06:39:47.295Z,100811.22
2023-01-11T06:42:15.148Z,100810.06
2023-01-11T06:44:43.057Z,100812.94
2023-01-11T06:47:10.900Z,100822.19
2023-01-11T06:49:38.836Z,100823.41
2023-01-11T06:52:06.738Z,100824.47
2023-01-11T06:54:34.643Z,100822.53
2023-01-11T06:57:03.915Z,100822.31
2023-01-11T06:59:31.804Z,100832.03
2023-01-11T07:01:59.888Z,100835.16
2023-01-11T07:04:27.754Z,100834.38
2023-01-11T07:06:56.336Z,100837.03
2023-01-11T07:09:24.201Z,100837.59
2023-01-11T07:11:52.124Z,100840.03
2023-01-11T07:14:22.126Z,100843.25
2023-01-11T07:16:50.050Z,100838.75
2023-01-11T07:19:18.545Z,100839.91
2023-01-11T07:21:46.427Z,100849.63
2023-01-11T07:24:15.571Z,100843.88
2023-01-11T07:26:43.799Z,100853.72
2023-01-11T07:29:12.358Z,100851.78
2023-01-11T07:31:41.654Z,100850.81
2023-01-11T07:34:09.530Z,100850.91
2023-01-11T07:36:39.644Z,100863.28
2023-01-11T07:39:08.042Z,100861.13
2023-01-11T07:41:53.367Z,100848.38
2023-01-11T07:44:21.440Z,100853.06
2023-01-11T07:46:50.837Z,100853.25
2023-01-11T07:49:18.797Z,100847.72
2023-01-11T07:51:46.678Z,100840.56
2023-01-11T07:54:14.672Z,100843.75
2023-01-11T07:56:42.501Z,100837.03
2023-01-11T07:59:10.761Z,100847.81
2023-01-11T08:01:38.728Z,100845.81
2023-01-11T08:04:11.958Z,100840.25
2023-01-11T08:06:40.039Z,100841.63
2023-01-11T08:09:08.437Z,100840.78
2023-01-11T08:11:53.901Z,100840.59
2023-01-11T08:14:40.156Z,100838.88
2023-01-11T08:17:08.471Z,100829.09
2023-01-11T08:19:37.862Z,100828.81
2023-01-11T08:22:06.144Z,100829.53
2023-01-11T08:24:34.686Z,100825.69
2023-01-11T08:27:02.964Z,100825.50
2023-01-11T08:29:32.303Z,100835.00
2023-01-11T08:32:00.700Z,100831.16
2023-01-11T08:34:29.137Z,100825.53
2023-01-11T08:36:58.506Z,100827.66
2023-01-11T08:39:29.557Z,100828.50
2023-01-11T08:41:57.534Z,100812.84
2023-01-11T08:44:33.660Z,100820.78
2023-01-11T08:47:02.051Z,100827.00
2023-01-11T08:49:30.544Z,100828.03
2023-01-11T08:51:59.881Z,100827.63
2023-01-11T08:54:27.858Z,100823.47
2023-01-11T08:56:56.303Z,100821.31
2023-01-11T08:59:24.203Z,100819.63
2023-01-11T09:01:52.141Z,100817.84
2023-01-11T09:04:25.286Z,100818.03
2023-01-11T09:06:53.773Z,100818.13
2023-01-11T09:09:23.158Z,100823.94
2023-01-11T09:11:57.250Z,100816.47
2023-01-11T09:14:26.685Z,100825.06
2023-01-11T09:16:55.144Z,100818.41
2023-01-11T09:19:23.432Z,100824.03
2023-01-11T09:21:51.891Z,100816.78
2023-01-11T09:24:20.011Z,100815.59
2023-01-11T09:26:49.370Z,100807.66
2023-01-11T09:29:17.574Z,100810.09
2023-01-11T09:31:45.444Z,100812.84
2023-01-11T09:34:13.881Z,100808.63
2023-01-11T09:36:43.054Z,100810.28
2023-01-11T09:39:14.502Z,100817.16
2023-01-11T09:42:05.315Z,100819.22
2023-01-11T09:44:36.622Z,100805.41
2023-01-11T09:47:15.301Z,100802.91
2023-01-11T09:49:50.943Z,100805.88
2023-01-11T09:52:28.908Z,100799.09
2023-01-11T09:54:59.534Z,100803.00
2023-01-11T09:57:42.118Z,100810.09
2023-01-11T10:00:20.533Z,100809.94
2023-01-11T10:03:05.561Z,100810.56
2023-01-11T10:05:57.121Z,100805.91
2023-01-11T10:18:22.463Z,100788.59
2023-01-11T10:18:41.585Z,100781.25
2023-01-11T10:20:41.639Z,100774.84
2023-01-11T10:23:16.068Z,100773.53
2023-01-11T10:25:51.455Z,100771.06
2023-01-11T10:28:26.895Z,100765.66
2023-01-11T10:31:11.301Z,100766.84
2023-01-11T10:34:05.930Z,100757.06
2023-01-11T10:36:55.492Z,100756.59
2023-01-11T10:39:50.668Z,100758.81
2023-01-11T10:42:22.553Z,100742.59
2023-01-11T10:45:00.135Z,100752.75
2023-01-11T10:47:36.525Z,100750.91
2023-01-11T10:50:15.749Z,100750.63
2023-01-11T10:52:51.940Z,100747.97
2023-01-11T10:55:26.665Z,100752.81
2023-01-11T10:58:08.479Z,100750.50
2023-01-11T11:00:48.502Z,100745.56
2023-01-11T11:03:42.355Z,100748.25
2023-01-11T11:06:14.770Z,100742.84
2023-01-11T11:08:52.644Z,100734.81
2023-01-11T11:11:24.074Z,100726.81
2023-01-11T11:13:59.156Z,100725.94
2023-01-11T11:16:41.081Z,100722.38
2023-01-11T11:19:13.579Z,100719.59
2023-01-11T11:21:47.537Z,100713.94
2023-01-11T11:24:23.698Z,100709.50
2023-01-11T11:26:58.467Z,100712.81
2023-01-11T11:29:30.602Z,100712.66
2023-01-11T11:32:01.185Z,100715.47
2023-01-11T11:34:31.032Z,100710.38
2023-01-11T11:37:01.839Z,100701.28
2023-01-11T11:39:32.053Z,100710.09
2023-01-11T11:42:08.137Z,100701.34
2023-01-11T11:44:36.324Z,100699.13
2023-01-11T11:47:05.574Z,100705.13
2023-01-11T11:49:36.088Z,100700.25
2023-01-11T11:52:06.561Z,100696.75
2023-01-11T11:54:38.009Z,100700.63
2023-01-11T11:57:16.228Z,100704.88
2023-01-11T11:59:47.533Z,100683.13
2023-01-11T12:02:25.203Z,100680.47
2023-01-11T12:04:56.454Z,100684.63
2023-01-11T12:07:27.771Z,100683.63
2023-01-11T12:09:59.833Z,100677.09
2023-01-11T12:12:29.664Z,100673.81
2023-01-11T12:15:09.384Z,100666.19
2023-01-11T12:17:37.999Z,100666.59
2023-01-11T12:20:31.454Z,100661.06
2023-01-11T12:23:16.866Z,100663.22
2023-01-11T12:26:08.088Z,100662.88
2023-01-11T12:29:03.111Z,100650.88
2023-01-11T12:31:41.448Z,100657.88
2023-01-11T12:34:23.114Z,100652.41
2023-01-11T12:37:03.648Z,100644.03
2023-01-11T12:39:39.853Z,100655.81
2023-01-11T12:42:33.208Z,100651.09
2023-01-11T12:45:16.997Z,100649.63
2023-01-11T12:48:13.535Z,100653.03
2023-01-11T12:50:54.451Z,100654.75
2023-01-11T12:53:36.669Z,100648.88
2023-01-11T12:56:34.373Z,100651.97
2023-01-11T12:59:09.462Z,100630.69
2023-01-11T13:01:50.395Z,100626.28
2023-01-11T13:04:48.395Z,100631.16
2023-01-11T13:07:28.866Z,100634.22
2023-01-11T13:10:10.779Z,100631.88
2023-01-11T13:12:45.785Z,100632.50
2023-01-11T13:15:35.502Z,100637.13
2023-01-11T13:18:13.390Z,100633.97
2023-01-11T13:21:00.815Z,100634.09
2023-01-11T13:23:39.129Z,100631.66
2023-01-11T13:26:17.670Z,100630.88
2023-01-11T13:28:49.829Z,100634.31
2023-01-11T13:31:18.587Z,100628.00
2023-01-11T13:33:50.655Z,100633.59
2023-01-11T13:36:24.100Z,100640.19
2023-01-11T13:39:00.119Z,100638.19
2023-01-11T13:41:34.300Z,100628.50
2023-01-11T13:44:07.293Z,100631.88
2023-01-11T13:46:48.585Z,100637.22
2023-01-11T13:49:36.143Z,100638.94
2023-01-11T13:52:11.089Z,100642.59
2023-01-11T13:54:49.545Z,100633.13
2023-01-11T13:57:26.757Z,100633.47
2023-01-11T14:00:02.634Z,100629.94
2023-01-11T14:02:44.796Z,100633.84
2023-01-11T14:05:16.540Z,100637.72
2023-01-11T14:08:00.530Z,100641.34
2023-01-11T14:10:39.839Z,100641.13
2023-01-11T14:13:41.379Z,100641.38
2023-01-11T14:16:19.935Z,100641.38
2023-01-11T14:18:55.257Z,100655.59
2023-01-11T14:21:30.884Z,100652.81
2023-01-11T14:23:59.652Z,100647.81
2023-01-11T14:26:54.466Z,100650.59
2023-01-11T14:29:40.771Z,100647.44
2023-01-11T14:32:23.679Z,100647.44
2023-01-11T14:35:28.131Z,100658.16
2023-01-11T14:38:35.980Z,100655.25
2023-01-11T14:41:40.405Z,100653.53
2023-01-11T14:44:18.950Z,100661.97
2023-01-11T14:47:12.003Z,100651.78
2023-01-11T14:49:52.618Z,100661.31
2023-01-11T14:52:38.936Z,100653.94
2023-01-11T14:55:16.871Z,100660.16
2023-01-11T14:57:45.453Z,100669.78
2023-01-11T15:00:49.319Z,100664.19
2023-01-11T15:03:46.996Z,100668.19
2023-01-11T15:06:17.128Z,100661.13
2023-01-11T15:08:48.063Z,100661.84
2023-01-11T15:11:38.520Z,100663.97
2023-01-11T15:14:23.368Z,100674.22
2023-01-11T15:17:11.496Z,100666.84
2023-01-11T15:19:44.351Z,100669.03
2023-01-11T15:22:25.665Z,100674.53
2023-01-11T15:24:59.743Z,100678.94
2023-01-11T15:27:32.838Z,100685.38
2023-01-11T15:30:01.298Z,100695.09
2023-01-11T15:32:31.316Z,100694.63
2023-01-11T15:35:32.902Z,100688.06
2023-01-11T15:38:09.324Z,100688.53
2023-01-11T15:40:41.222Z,100700.31
2023-01-11T15:43:46.533Z,100700.81
2023-01-11T15:46:56.303Z,100696.69
2023-01-11T15:50:13.496Z,100702.53
2023-01-11T15:53:33.161Z,100707.50
2023-01-11T15:56:24.059Z,100708.72
2023-01-11T15:59:10.988Z,100719.88
2023-01-11T16:01:55.567Z,100718.31
2023-01-11T16:04:30.193Z,100719.41
2023-01-11T16:07:02.868Z,100727.44
2023-01-11T16:10:02.260Z,100728.25
2023-01-11T16:12:59.555Z,100732.81
2023-01-11T16:15:39.340Z,100725.47
2023-01-11T16:18:14.601Z,100745.47
2023-01-11T16:20:45.112Z,100742.50
2023-01-11T16:23:20.277Z,100749.53
2023-01-11T16:25:56.193Z,100753.94
2023-01-11T16:28:25.346Z,100752.81
2023-01-11T16:30:57.725Z,100761.69
2023-01-11T16:33:27.619Z,100764.38
2023-01-11T16:36:13.060Z,100769.03
2023-01-11T16:38:48.185Z,100767.78
2023-01-11T16:41:17.996Z,100775.38
2023-01-11T16:43:52.687Z,100775.69
2023-01-11T16:47:06.891Z,100768.84
2023-01-11T16:49:35.284Z,100783.00
2023-01-11T16:52:45.345Z,100786.88
2023-01-11T16:55:20.498Z,100793.81
2023-01-11T16:57:54.093Z,100805.38
2023-01-11T17:00:27.607Z,100799.28
2023-01-11T17:03:05.717Z,100802.34
2023-01-11T17:05:33.734Z,100802.59
2023-01-11T17:08:01.652Z,100798.50
2023-01-11T17:10:31.153Z,100797.25
2023-01-11T17:13:48.162Z,100802.72
2023-01-11T17:16:17.372Z,100810.16
2023-01-11T17:18:45.695Z,100808.22
2023-01-11T17:21:19.589Z,100811.69
2023-01-11T17:23:49.842Z,100806.06
2023-01-11T17:26:22.778Z,100809.00
2023-01-11T17:28:55.954Z,100811.56
2023-01-11T17:31:27.815Z,100813.38
2023-01-11T17:34:04.666Z,100814.25
2023-01-11T17:36:33.604Z,100819.09
2023-01-11T17:39:01.990Z,100818.41
2023-01-11T17:41:48.046Z,100823.53
2023-01-11T17:44:37.829Z,100824.97
2023-01-11T17:47:08.598Z,100824.28
2023-01-11T17:49:38.797Z,100830.13
2023-01-11T17:52:21.121Z,100827.41
2023-01-11T17:55:00.201Z,100825.38
2023-01-11T17:57:28.267Z,100829.16
2023-01-11T18:00:19.848Z,100849.84
2023-01-11T18:02:48.239Z,100849.09
2023-01-11T18:05:19.062Z,100855.81
2023-01-11T18:07:50.214Z,100855.22
2023-01-11T18:10:20.724Z,100860.91
2023-01-11T18:12:50.610Z,100862.63
2023-01-11T18:15:26.006Z,100870.31
2023-01-11T18:17:56.991Z,100879.81
2023-01-11T18:20:37.781Z,100875.66
2023-01-11T18:23:19.223Z,100877.34
2023-01-11T18:25:47.500Z,100877.34
2023-01-11T18:28:28.397Z,100872.72
2023-01-11T18:31:01.712Z,100875.63
2023-01-11T18:33:32.552Z,100875.75
2023-01-11T18:36:03.140Z,100888.53
2023-01-11T18:38:32.679Z,100895.88
2023-01-11T18:41:23.415Z,100897.44
2023-01-11T18:43:51.324Z,100902.56
2023-01-11T18:46:20.754Z,100897.81
2023-01-11T18:48:48.699Z,100901.47
2023-01-11T18:51:19.213Z,100897.94
2023-01-11T18:53:47.127Z,100904.59
2023-01-11T18:56:16.379Z,100903.06
2023-01-11T18:58:44.500Z,100902.44
2023-01-11T19:01:12.933Z,100902.44
2023-01-11T19:03:43.770Z,100899.03
2023-01-11T19:06:14.185Z,100914.09
2023-01-11T19:08:42.145Z,100918.25
2023-01-11T19:11:10.018Z,100916.91
2023-01-11T19:13:37.893Z,100931.88
2023-01-11T19:16:06.650Z,100934.03
2023-01-11T19:18:35.388Z,100936.38
2023-01-11T19:21:06.617Z,100938.81
2023-01-11T19:23:34.595Z,100938.41
2023-01-11T19:26:02.509Z,100945.56
2023-01-11T19:28:31.092Z,100951.69
2023-01-11T19:30:59.307Z,100957.91
2023-01-11T19:33:27.309Z,100950.75
2023-01-11T19:35:55.242Z,100959.34
2023-01-11T19:38:24.647Z,100962.41
2023-01-11T19:40:52.601Z,100958.28
2023-01-11T19:43:20.557Z,100955.97
2023-01-11T19:45:56.325Z,100960.91
2023-01-11T19:48:24.274Z,100969.13
2023-01-11T19:50:52.583Z,100974.53
2023-01-11T19:53:20.431Z,100967.94
2023-01-11T19:55:49.809Z,100972.19
2023-01-11T19:58:17.688Z,100970.75
2023-01-11T20:00:45.619Z,100980.00
2023-01-11T20:03:13.600Z,100987.00
2023-01-11T20:05:41.466Z,100978.44
2023-01-11T20:08:09.376Z,100984.47
2023-01-11T20:10:37.251Z,100980.31
2023-01-11T20:13:06.496Z,100993.84
2023-01-11T20:15:34.425Z,100999.09
2023-01-11T20:18:02.325Z,101001.44
2023-01-11T20:20:30.175Z,100996.25
2023-01-11T20:22:58.049Z,101002.56
2023-01-11T20:25:25.957Z,101004.69
2023-01-11T20:27:53.962Z,101016.69
2023-01-11T20:30:23.175Z,101015.31
2023-01-11T20:32:51.154Z,101007.19
2023-01-11T20:35:19.195Z,101005.94
2023-01-11T20:37:47.042Z,101004.00
2023-01-11T20:40:14.922Z,101001.28
2023-01-11T20:42:43.135Z,101003.31
2023-01-11T20:45:12.049Z,101001.94
2023-01-11T20:47:41.306Z,101008.19
2023-01-11T20:50:10.249Z,101022.63
2023-01-11T20:52:38.137Z,101006.31
2023-01-11T20:55:06.970Z,101019.72
2023-01-11T20:57:34.855Z,101013.34
2023-01-11T21:00:02.823Z,101021.50
2023-01-11T21:02:30.677Z,101028.91
2023-01-11T21:04:59.920Z,101024.63
2023-01-11T21:07:27.705Z,101026.56
2023-01-11T21:09:55.544Z,101017.47
2023-01-11T21:12:23.696Z,101013.75
2023-01-11T21:14:51.601Z,101021.00
2023-01-11T21:17:20.182Z,101015.13
2023-01-11T21:19:47.983Z,101013.75
2023-01-11T21:22:17.238Z,101018.03
2023-01-11T21:24:45.194Z,101026.25
2023-01-11T21:27:13.132Z,101024.22
2023-01-11T21:29:41.066Z,101011.19
2023-01-11T21:32:08.918Z,101016.97
2023-01-11T21:34:36.778Z,101015.25
2023-01-11T21:37:04.856Z,101008.50
2023-01-11T21:39:34.228Z,101006.97
2023-01-11T21:42:03.559Z,101010.31
2023-01-11T21:44:33.668Z,101011.47
2023-01-11T21:47:02.850Z,101006.03
2023-01-11T21:49:31.051Z,101007.00
2023-01-11T21:51:59.569Z,101008.91
2023-01-11T21:54:27.509Z,101014.16
2023-01-11T21:56:56.869Z,101010.00
2023-01-11T21:59:24.953Z,101015.66
2023-01-11T22:01:52.877Z,101021.94
2023-01-11T22:04:22.240Z,101021.31
2023-01-11T22:06:55.210Z,101027.28
2023-01-11T22:09:26.263Z,101028.16
2023-01-11T22:11:54.357Z,101027.75
2023-01-11T22:14:23.765Z,101022.16
2023-01-11T22:16:51.868Z,101031.38
2023-01-11T22:19:20.403Z,101032.13
2023-01-11T22:21:48.308Z,101023.88
2023-01-11T22:24:17.443Z,101021.97
2023-01-11T22:26:45.412Z,101018.22
2023-01-11T22:29:14.961Z,101030.81
2023-01-11T22:31:46.772Z,101019.72
2023-01-11T22:34:15.580Z,101021.22
2023-01-11T22:36:44.494Z,101017.25
2023-01-11T22:39:13.514Z,101020.84
2023-01-11T22:41:41.468Z,101018.56
2023-01-11T22:44:10.403Z,101009.69
2023-01-11T22:46:38.997Z,101016.09
2023-01-11T22:49:09.227Z,101015.75
2023-01-11T22:51:37.831Z,101023.34
2023-01-11T22:54:06.234Z,101017.53
2023-01-11T22:56:34.693Z,101023.00
2023-01-11T22:59:02.935Z,101021.50
2023-01-11T23:01:32.511Z,101020.91
2023-01-11T23:04:01.283Z,101017.81
2023-01-11T23:06:32.442Z,101032.50
2023-01-11T23:09:00.779Z,101030.19
2023-01-11T23:11:48.420Z,101023.78
2023-01-11T23:14:18.186Z,101030.00
2023-01-11T23:16:47.347Z,101024.94
2023-01-11T23:19:18.435Z,101027.13
2023-01-11T23:21:48.628Z,101030.59
2023-01-11T23:24:17.728Z,101031.00
2023-01-11T23:26:46.180Z,101037.63
2023-01-11T23:29:14.367Z,101039.94
2023-01-11T23:31:43.702Z,101025.59
2023-01-11T23:34:13.115Z,101028.81
2023-01-11T23:36:43.373Z,101018.84
2023-01-11T23:39:15.189Z,101012.59
2023-01-11T23:42:00.913Z,101005.94
2023-01-11T23:44:28.747Z,101000.78
2023-01-11T23:47:14.281Z,101006.22
2023-01-11T23:49:43.225Z,101008.97
2023-01-11T23:52:11.697Z,100996.06
2023-01-11T23:54:41.244Z,100990.97
2023-01-11T23:57:09.376Z,100999.63
2023-01-11T23:59:37.267Z,100999.31
